Time;durP1;ratioP1;P1;durP2;ratioP2;P2;SDS_P1;SDS_P2;PMS_P1;PMS_P2;Temp;Humidity;BMP_temperature;BMP_pressure;BME280_temperature;BME280_humidity;BME280_pressure;Samples;Min_cycle;Max_cycle;Signal;HPM_P1;HPM_P2
2021/03/17 00:01:06;;;;;;;25.27;17.60;;;6.10;99.90;;;;;;5054164;28;20208;-72
2021/03/17 00:03:33;;;;;;;24.83;17.43;;;6.00;99.90;;;;;;5054732;28;20212;-73
2021/03/17 00:05:59;;;;;;;26.10;17.73;;;5.90;99.90;;;;;;5053908;28;20253;-73
2021/03/17 00:08:26;;;;;;;28.80;19.50;;;5.90;99.90;;;;;;5054554;28;20204;-73
2021/03/17 00:10:53;;;;;;;31.40;22.67;;;6.20;99.90;;;;;;5053841;28;20210;-73
2021/03/17 00:13:21;;;;;;;32.40;22.20;;;5.70;99.90;;;;;;5047933;28;20277;-72
2021/03/17 00:15:49;;;;;;;37.37;24.43;;;5.60;99.90;;;;;;5047456;28;20318;-74
2021/03/17 00:18:16;;;;;;;33.87;22.93;;;5.60;99.90;;;;;;5054110;28;20203;-72
2021/03/17 00:20:42;;;;;;;37.30;24.03;;;5.60;99.90;;;;;;5054187;28;20566;-72
2021/03/17 00:23:10;;;;;;;36.17;23.00;;;5.50;99.90;;;;;;5040074;28;20195;-73
2021/03/17 00:25:37;;;;;;;41.27;26.83;;;5.40;99.90;;;;;;5053891;28;20249;-72
2021/03/17 00:28:04;;;;;;;42.07;26.90;;;5.40;99.90;;;;;;5053981;28;20208;-73
2021/03/17 00:30:31;;;;;;;44.63;28.07;;;5.30;99.90;;;;;;5054191;28;20252;-73
2021/03/17 00:33:00;;;;;;;45.80;29.90;;;5.40;99.90;;;;;;5053597;28;20294;-73
2021/03/17 00:35:26;;;;;;;49.53;30.27;;;5.20;99.90;;;;;;5053747;28;20200;-73
2021/03/17 00:37:53;;;;;;;54.03;32.40;;;5.30;99.90;;;;;;5054159;28;20214;-73
2021/03/17 00:40:20;;;;;;;53.60;32.10;;;5.30;99.90;;;;;;5067868;28;20195;-73
2021/03/17 00:42:46;;;;;;;54.90;32.07;;;5.30;99.90;;;;;;5053936;28;20208;-73
2021/03/17 00:45:14;;;;;;;51.43;30.63;;;5.40;99.90;;;;;;5053348;28;20199;-73
2021/03/17 00:47:40;;;;;;;52.07;30.90;;;5.30;99.90;;;;;;5053353;28;20590;-74
2021/03/17 00:50:10;;;;;;;58.53;31.63;;;5.30;99.90;;;;;;5053566;28;20534;-73
2021/03/17 00:52:37;;;;;;;58.10;33.50;;;5.30;99.90;;;;;;5061420;28;20199;-74
2021/03/17 00:55:05;;;;;;;52.57;31.37;;;5.30;99.90;;;;;;5058768;28;20706;-74
2021/03/17 00:57:31;;;;;;;48.67;31.67;;;5.30;99.90;;;;;;5039965;28;20299;-73
2021/03/17 00:59:58;;;;;;;55.93;31.80;;;5.30;99.90;;;;;;5053602;28;20204;-74
2021/03/17 01:02:24;;;;;;;57.27;33.03;;;5.40;99.90;;;;;;5053037;28;20202;-73
2021/03/17 01:04:50;;;;;;;55.67;33.83;;;5.30;99.90;;;;;;5053479;28;20202;-74
2021/03/17 01:07:19;;;;;;;60.50;34.37;;;5.40;99.90;;;;;;5053359;28;20226;-73
2021/03/17 01:09:46;;;;;;;60.80;34.57;;;5.40;99.90;;;;;;5047824;28;20200;-73
2021/03/17 01:12:13;;;;;;;61.87;35.77;;;5.40;99.90;;;;;;5044493;28;20647;-74
2021/03/17 01:14:41;;;;;;;59.50;37.53;;;5.50;99.90;;;;;;5052839;28;20216;-74
2021/03/17 01:17:08;;;;;;;65.10;39.37;;;5.30;99.90;;;;;;5063139;28;20199;-73
2021/03/17 01:19:35;;;;;;;61.27;37.73;;;5.40;99.90;;;;;;5056887;28;20204;-74
2021/03/17 01:22:02;;;;;;;64.47;39.20;;;5.30;99.90;;;;;;5053198;28;20207;-75
2021/03/17 01:24:30;;;;;;;68.40;39.47;;;5.30;99.90;;;;;;5052572;28;20572;-73
2021/03/17 01:26:56;;;;;;;63.20;39.60;;;5.20;99.90;;;;;;5053087;28;20337;-73
2021/03/17 01:29:23;;;;;;;66.10;38.37;;;5.40;99.90;;;;;;5052567;28;20204;-73
2021/03/17 01:31:50;;;;;;;66.87;40.57;;;5.40;99.90;;;;;;5052886;28;20195;-73
2021/03/17 01:34:16;;;;;;;63.40;40.47;;;5.40;99.90;;;;;;5052592;28;20587;-73
2021/03/17 01:36:42;;;;;;;64.63;39.07;;;5.40;99.90;;;;;;5051791;28;20647;-73
2021/03/17 01:39:09;;;;;;;63.07;38.83;;;5.00;99.90;;;;;;5052778;28;20203;-73
2021/03/17 01:41:36;;;;;;;63.83;38.70;;;5.60;99.90;;;;;;5052688;28;20302;-72
2021/03/17 01:44:03;;;;;;;66.40;40.20;;;5.40;99.90;;;;;;5052778;28;20226;-73
2021/03/17 01:46:30;;;;;;;65.00;40.50;;;5.40;99.90;;;;;;5053131;28;20207;-73
2021/03/17 01:48:56;;;;;;;73.43;41.47;;;5.40;99.90;;;;;;5052523;28;20208;-73
2021/03/17 01:51:23;;;;;;;71.10;42.40;;;5.40;99.90;;;;;;5052416;28;20561;-73
2021/03/17 01:53:50;;;;;;;66.60;39.00;;;5.50;99.90;;;;;;5052463;28;20226;-73
2021/03/17 01:56:16;;;;;;;73.40;42.00;;;5.50;99.90;;;;;;5052567;28;20211;-73
2021/03/17 01:58:43;;;;;;;58.70;37.07;;;5.50;99.90;;;;;;5052589;28;20195;-73
2021/03/17 02:01:10;;;;;;;64.07;39.30;;;5.40;99.90;;;;;;5052452;28;20274;-73
2021/03/17 02:03:36;;;;;;;67.77;40.47;;;5.40;99.90;;;;;;5052713;28;20203;-73
2021/03/17 02:06:03;;;;;;;57.27;36.40;;;5.40;99.90;;;;;;5052156;28;20594;-73
2021/03/17 02:08:33;;;;;;;61.90;36.27;;;5.40;99.90;;;;;;5052621;28;20230;-73
2021/03/17 02:11:00;;;;;;;48.33;31.27;;;5.40;99.90;;;;;;5051884;28;20201;-73
2021/03/17 02:14:01;;;;;;;42.30;30.20;;;5.20;99.90;;;;;;5052437;28;20227;-73
2021/03/17 02:16:30;;;;;;;44.33;29.20;;;5.20;99.90;;;;;;5008842;28;20210;-74
2021/03/17 02:19:40;;;;;;;35.80;25.73;;;5.20;99.90;;;;;;5052549;28;20210;-72
2021/03/17 02:22:35;;;;;;;37.87;26.40;;;5.10;99.90;;;;;;4969326;28;20197;-73
2021/03/17 02:25:09;;;;;;;36.77;26.80;;;5.10;99.90;;;;;;5048322;28;20295;-73
2021/03/17 02:27:55;;;;;;;38.33;27.27;;;5.00;99.90;;;;;;5052538;28;20207;-73
2021/03/17 02:30:47;;;;;;;39.67;27.33;;;5.00;99.90;;;;;;5052533;28;20200;-74
2021/03/17 02:33:38;;;;;;;40.67;27.40;;;5.10;99.90;;;;;;5050688;28;20257;-73
2021/03/17 02:36:10;;;;;;;41.03;27.10;;;5.00;99.90;;;;;;5051932;28;20687;-73
2021/03/17 02:38:39;;;;;;;40.93;28.20;;;5.10;99.90;;;;;;5051460;28;20211;-73
2021/03/17 02:41:07;;;;;;;44.37;27.70;;;5.00;99.90;;;;;;5052094;28;20211;-74
2021/03/17 02:43:40;;;;;;;41.27;28.70;;;5.00;99.90;;;;;;5052052;28;20283;-73
2021/03/17 02:46:10;;;;;;;39.30;27.27;;;5.10;99.90;;;;;;5051819;28;20199;-77
2021/03/17 02:48:42;;;;;;;42.03;27.87;;;5.00;99.90;;;;;;5055098;28;20692;-74
2021/03/17 02:51:17;;;;;;;44.27;28.70;;;5.00;99.90;;;;;;5056089;28;20196;-74
2021/03/17 02:53:46;;;;;;;42.77;27.10;;;5.00;99.90;;;;;;5055792;28;20213;-73
2021/03/17 02:56:14;;;;;;;44.40;28.87;;;5.00;99.90;;;;;;5055656;28;20204;-74
2021/03/17 02:58:44;;;;;;;44.27;28.40;;;5.00;99.90;;;;;;5055679;28;20386;-74
2021/03/17 03:01:14;;;;;;;43.13;27.20;;;5.00;99.90;;;;;;5055869;28;20207;-74
2021/03/17 03:03:42;;;;;;;43.43;28.30;;;5.10;99.90;;;;;;5055266;28;20196;-74
2021/03/17 03:06:10;;;;;;;44.93;27.83;;;5.00;99.90;;;;;;5055410;28;20199;-74
2021/03/17 03:08:40;;;;;;;44.50;28.57;;;5.00;99.90;;;;;;5069053;28;20281;-74
2021/03/17 03:11:09;;;;;;;45.70;27.50;;;5.00;99.90;;;;;;5055611;28;20200;-74
2021/03/17 03:13:37;;;;;;;42.90;28.93;;;5.10;99.90;;;;;;5055320;28;20318;-74
2021/03/17 03:16:06;;;;;;;46.13;29.10;;;5.10;99.90;;;;;;5055622;28;20199;-74
2021/03/17 03:18:34;;;;;;;40.33;27.40;;;5.10;99.90;;;;;;5055300;28;20207;-73
2021/03/17 03:21:02;;;;;;;44.13;28.57;;;5.10;99.90;;;;;;5055357;28;20204;-74
2021/03/17 03:23:29;;;;;;;44.70;28.30;;;5.10;99.90;;;;;;5055479;28;20205;-73
2021/03/17 03:25:56;;;;;;;45.97;28.80;;;5.20;99.90;;;;;;5055171;28;20302;-73
2021/03/17 03:28:23;;;;;;;43.20;28.80;;;5.20;99.90;;;;;;5055049;28;20644;-74
2021/03/17 03:30:52;;;;;;;42.30;28.23;;;5.10;99.90;;;;;;5055116;28;20203;-74
2021/03/17 03:33:19;;;;;;;45.03;28.77;;;5.20;99.90;;;;;;5055162;28;20196;-74
2021/03/17 03:35:45;;;;;;;46.03;29.97;;;5.20;99.90;;;;;;5054499;28;20204;-74
2021/03/17 03:38:13;;;;;;;46.17;29.50;;;5.20;99.90;;;;;;5055352;28;20606;-74
2021/03/17 03:40:41;;;;;;;46.37;29.50;;;5.20;99.90;;;;;;5054508;28;20674;-74
2021/03/17 03:43:09;;;;;;;47.03;29.47;;;5.20;99.90;;;;;;5054865;28;20202;-74
2021/03/17 03:45:36;;;;;;;48.70;30.87;;;5.30;99.90;;;;;;5054784;28;20206;-74
2021/03/17 03:48:04;;;;;;;45.60;29.43;;;5.30;99.90;;;;;;5054305;28;20205;-74
2021/03/17 03:50:35;;;;;;;47.50;29.57;;;5.30;99.90;;;;;;5054621;28;20609;-74
2021/03/17 03:53:09;;;;;;;47.10;30.53;;;5.30;99.90;;;;;;5054683;28;20196;-74
2021/03/17 03:55:46;;;;;;;43.90;29.77;;;5.30;99.90;;;;;;5054908;28;20208;-74
2021/03/17 03:58:18;;;;;;;52.80;30.93;;;5.20;99.90;;;;;;5054472;28;20256;-74
2021/03/17 04:00:45;;;;;;;49.57;29.87;;;5.30;99.90;;;;;;5054633;28;20202;-74
2021/03/17 04:03:14;;;;;;;47.87;30.83;;;5.30;99.90;;;;;;5054009;28;20702;-74
2021/03/17 04:05:41;;;;;;;54.37;33.47;;;5.30;99.90;;;;;;5054708;28;20286;-75
2021/03/17 04:08:12;;;;;;;52.13;30.07;;;5.40;99.90;;;;;;5054420;28;20604;-74
2021/03/17 04:10:40;;;;;;;52.77;31.30;;;5.30;99.90;;;;;;5054829;28;20198;-74
2021/03/17 04:13:09;;;;;;;50.60;32.27;;;5.30;99.90;;;;;;5068030;28;20248;-75
2021/03/17 04:15:38;;;;;;;53.43;31.80;;;5.30;99.90;;;;;;5054329;28;20203;-74
2021/03/17 04:18:11;;;;;;;55.23;33.60;;;5.40;99.90;;;;;;5054286;28;20206;-74
2021/03/17 04:20:42;;;;;;;53.63;32.70;;;5.50;99.90;;;;;;5054289;28;20195;-74
2021/03/17 04:23:10;;;;;;;52.43;31.30;;;5.40;99.90;;;;;;5054148;28;20562;-75
2021/03/17 04:25:40;;;;;;;50.70;30.87;;;5.40;99.90;;;;;;5054032;28;20529;-75
2021/03/17 04:28:10;;;;;;;49.17;31.83;;;5.40;99.90;;;;;;5054334;28;20211;-74
2021/03/17 04:30:37;;;;;;;47.93;30.50;;;5.40;99.90;;;;;;5067766;28;20673;-74
2021/03/17 04:33:04;;;;;;;48.17;31.80;;;5.30;99.90;;;;;;5043430;28;20204;-75
2021/03/17 04:35:31;;;;;;;45.50;29.97;;;5.40;99.90;;;;;;5036946;28;20225;-75
2021/03/17 04:37:58;;;;;;;49.13;31.17;;;5.40;99.90;;;;;;5054082;28;20237;-75
2021/03/17 04:40:24;;;;;;;51.27;33.10;;;5.40;99.90;;;;;;5053937;28;20200;-75
2021/03/17 04:42:52;;;;;;;47.30;29.67;;;5.50;99.90;;;;;;5053749;28;20303;-74
2021/03/17 04:45:19;;;;;;;47.60;30.17;;;5.40;99.90;;;;;;5053431;28;20681;-75
2021/03/17 04:47:47;;;;;;;44.83;30.47;;;5.40;99.90;;;;;;5067591;28;20205;-75
2021/03/17 04:50:17;;;;;;;43.83;29.13;;;5.40;99.90;;;;;;5053558;28;20657;-75
2021/03/17 04:52:45;;;;;;;49.30;30.93;;;5.40;99.90;;;;;;5039629;28;20265;-75
2021/03/17 04:55:13;;;;;;;44.00;29.03;;;5.40;99.90;;;;;;5053617;28;20318;-75
2021/03/17 04:57:41;;;;;;;46.97;30.40;;;5.40;99.90;;;;;;5053905;28;20345;-75
2021/03/17 05:00:11;;;;;;;47.90;31.20;;;5.40;99.90;;;;;;5066855;28;20204;-76
2021/03/17 05:02:41;;;;;;;45.70;29.50;;;5.40;99.90;;;;;;5053580;28;20248;-75
2021/03/17 05:05:09;;;;;;;45.93;29.13;;;5.40;99.90;;;;;;5053537;28;20635;-76
2021/03/17 05:07:38;;;;;;;44.47;29.77;;;5.40;99.90;;;;;;5053164;28;20207;-76
2021/03/17 05:10:06;;;;;;;43.87;29.30;;;5.40;99.90;;;;;;5052735;28;20203;-75
2021/03/17 05:12:33;;;;;;;41.70;28.23;;;5.40;99.90;;;;;;5052828;28;20204;-75
2021/03/17 05:15:00;;;;;;;41.97;27.87;;;5.40;99.90;;;;;;5053006;28;20227;-75
2021/03/17 05:17:28;;;;;;;42.77;27.40;;;5.40;99.90;;;;;;5053029;28;20200;-75
2021/03/17 05:19:55;;;;;;;45.60;30.10;;;5.40;99.90;;;;;;5053577;28;20211;-75
2021/03/17 05:22:22;;;;;;;40.37;25.23;;;5.40;99.90;;;;;;5053350;28;20199;-74
2021/03/17 05:24:49;;;;;;;38.13;26.30;;;5.40;99.90;;;;;;5053587;28;20212;-74
2021/03/17 05:27:20;;;;;;;35.13;24.20;;;5.40;99.90;;;;;;5052737;28;20221;-74
2021/03/17 05:29:48;;;;;;;35.77;23.67;;;5.50;99.90;;;;;;5053179;28;20200;-74
2021/03/17 05:32:16;;;;;;;37.13;24.17;;;5.50;99.90;;;;;;5052651;28;20198;-74
2021/03/17 05:34:55;;;;;;;35.00;22.97;;;5.50;99.90;;;;;;5052676;28;20280;-75
2021/03/17 05:37:22;;;;;;;36.53;22.43;;;5.40;99.90;;;;;;5052521;28;20213;-75
2021/03/17 05:39:48;;;;;;;33.33;21.33;;;5.50;99.90;;;;;;5052380;28;20195;-75
2021/03/17 05:42:15;;;;;;;32.07;20.87;;;5.50;99.90;;;;;;5053154;28;20607;-75
2021/03/17 05:44:43;;;;;;;28.57;20.23;;;5.60;99.90;;;;;;5052675;28;20204;-75
2021/03/17 05:47:10;;;;;;;30.73;19.80;;;5.60;99.90;;;;;;5052912;28;20204;-74
2021/03/17 05:49:37;;;;;;;28.90;19.50;;;5.50;99.90;;;;;;5052360;28;20203;-75
2021/03/17 05:52:06;;;;;;;35.77;22.13;;;5.50;99.90;;;;;;5052850;28;20321;-75
2021/03/17 05:54:33;;;;;;;31.33;21.17;;;5.50;99.90;;;;;;5052362;28;20234;-75
2021/03/17 05:57:00;;;;;;;34.67;20.23;;;5.50;99.90;;;;;;5052780;28;20321;-74
2021/03/17 05:59:27;;;;;;;32.10;21.43;;;5.60;99.90;;;;;;5052508;28;20207;-75
2021/03/17 06:01:55;;;;;;;34.53;21.53;;;5.60;99.90;;;;;;5052745;28;20210;-75
2021/03/17 06:04:22;;;;;;;33.53;22.07;;;5.60;99.90;;;;;;5052754;28;20211;-74
2021/03/17 06:06:52;;;;;;;37.90;22.00;;;5.70;99.90;;;;;;5052503;28;20199;-74
2021/03/17 06:09:22;;;;;;;34.60;22.20;;;5.60;99.90;;;;;;5052183;28;20210;-74
2021/03/17 06:11:51;;;;;;;35.80;23.30;;;5.70;99.90;;;;;;5056247;28;20208;-74
2021/03/17 06:14:20;;;;;;;37.63;23.27;;;5.70;99.90;;;;;;5062306;28;20223;-75
2021/03/17 06:16:48;;;;;;;37.20;22.83;;;5.70;99.90;;;;;;5052312;28;20201;-74
2021/03/17 06:19:16;;;;;;;33.93;23.07;;;5.70;99.90;;;;;;5052601;28;20215;-74
2021/03/17 06:21:43;;;;;;;33.37;21.17;;;5.80;99.90;;;;;;5052127;28;20200;-75
2021/03/17 06:24:11;;;;;;;30.10;21.77;;;5.80;99.90;;;;;;5056649;28;20203;-75
2021/03/17 06:26:39;;;;;;;30.37;21.00;;;5.70;99.90;;;;;;5056146;28;20659;-75
2021/03/17 06:29:05;;;;;;;31.17;21.97;;;5.80;99.90;;;;;;5070115;28;20698;-75
2021/03/17 06:31:32;;;;;;;33.77;20.57;;;5.70;99.90;;;;;;5056515;28;20199;-75
2021/03/17 06:33:59;;;;;;;27.53;20.43;;;5.70;99.90;;;;;;5056106;28;20284;-75
2021/03/17 06:36:26;;;;;;;32.53;20.63;;;5.70;99.90;;;;;;5056026;28;20203;-75
2021/03/17 06:39:06;;;;;;;33.80;21.47;;;5.80;99.90;;;;;;5056033;28;20248;-76
2021/03/17 06:41:43;;;;;;;25.53;19.37;;;5.80;99.90;;;;;;5056378;28;20218;-76
2021/03/17 06:44:10;;;;;;;26.83;17.83;;;5.90;99.90;;;;;;5056005;28;20316;-76
2021/03/17 06:46:37;;;;;;;25.00;16.73;;;5.90;99.90;;;;;;5055856;28;20202;-75
2021/03/17 06:49:04;;;;;;;26.47;17.23;;;6.00;99.90;;;;;;5055817;28;20608;-75
2021/03/17 06:51:31;;;;;;;24.97;17.20;;;6.10;99.90;;;;;;5055355;28;20211;-75
2021/03/17 06:53:59;;;;;;;22.53;14.33;;;6.10;99.90;;;;;;5055936;28;20319;-75
2021/03/17 06:56:27;;;;;;;24.00;14.00;;;6.20;99.90;;;;;;5055833;28;20200;-75
2021/03/17 06:58:56;;;;;;;23.13;13.93;;;6.30;99.90;;;;;;5055882;28;20203;-74
2021/03/17 07:01:24;;;;;;;24.17;13.70;;;6.40;99.90;;;;;;5055414;28;20196;-75
2021/03/17 07:03:53;;;;;;;20.53;11.50;;;6.50;99.90;;;;;;5056058;28;20203;-75
2021/03/17 07:06:20;;;;;;;19.43;11.80;;;6.60;99.90;;;;;;5055608;28;20575;-75
2021/03/17 07:08:46;;;;;;;23.30;10.87;;;6.70;99.90;;;;;;5055283;28;20722;-75
2021/03/17 07:11:20;;;;;;;16.57;9.17;;;6.60;99.90;;;;;;5055612;28;20248;-75
2021/03/17 07:13:54;;;;;;;17.80;9.47;;;6.60;99.90;;;;;;5041593;28;20211;-74
2021/03/17 07:16:36;;;;;;;20.47;8.57;;;6.60;99.90;;;;;;5048840;28;20200;-75
2021/03/17 07:19:04;;;;;;;20.27;8.27;;;6.70;99.90;;;;;;5038255;28;20279;-76
2021/03/17 07:21:32;;;;;;;17.37;8.03;;;6.70;99.90;;;;;;5037773;28;20302;-75
2021/03/17 07:23:58;;;;;;;16.40;6.70;;;6.70;99.90;;;;;;5043408;28;20210;-75
2021/03/17 07:26:27;;;;;;;25.20;7.90;;;6.80;99.90;;;;;;5042794;28;20196;-75
2021/03/17 07:29:03;;;;;;;15.70;6.67;;;6.80;99.90;;;;;;5053970;28;20218;-75
2021/03/17 07:31:31;;;;;;;14.97;6.97;;;6.80;99.90;;;;;;5055062;28;20191;-75
2021/03/17 07:34:23;;;;;;;15.30;8.03;;;6.90;99.90;;;;;;5053676;28;20229;-75
2021/03/17 07:36:55;;;;;;;19.80;7.43;;;7.00;99.90;;;;;;5051254;28;20235;-75
2021/03/17 07:39:24;;;;;;;15.77;6.50;;;7.00;99.90;;;;;;5048363;28;20195;-75
2021/03/17 07:41:53;;;;;;;17.17;6.50;;;7.00;99.90;;;;;;5046284;28;20202;-75
2021/03/17 07:44:22;;;;;;;22.30;6.57;;;7.00;99.90;;;;;;5050635;28;20260;-75
2021/03/17 07:46:50;;;;;;;16.60;6.33;;;7.00;99.90;;;;;;5045714;28;20257;-78
2021/03/17 07:49:17;;;;;;;21.90;7.33;;;7.00;99.90;;;;;;5039072;28;20204;-75
2021/03/17 07:51:50;;;;;;;20.23;6.97;;;7.10;99.90;;;;;;5039997;28;20290;-75
2021/03/17 07:54:27;;;;;;;22.03;7.70;;;7.10;99.90;;;;;;5040081;28;20214;-75
2021/03/17 07:56:54;;;;;;;15.57;6.57;;;7.10;99.90;;;;;;5039458;28;20210;-75
2021/03/17 07:59:22;;;;;;;12.60;5.93;;;7.20;99.90;;;;;;5040087;28;20614;-75
2021/03/17 08:01:50;;;;;;;15.37;6.37;;;7.20;99.90;;;;;;5039304;28;21497;-75
2021/03/17 08:04:17;;;;;;;20.13;6.20;;;7.10;99.90;;;;;;5038434;28;20207;-76
2021/03/17 08:06:44;;;;;;;13.63;6.07;;;7.20;99.90;;;;;;5038468;28;20572;-76
2021/03/17 08:09:11;;;;;;;13.87;5.10;;;7.30;99.90;;;;;;5040071;28;20642;-76
2021/03/17 08:11:38;;;;;;;16.33;5.50;;;7.30;99.90;;;;;;5039410;28;20204;-76
2021/03/17 08:14:07;;;;;;;13.53;5.67;;;7.30;99.90;;;;;;5041127;28;20324;-75
2021/03/17 08:16:36;;;;;;;8.33;5.63;;;7.30;99.90;;;;;;5039030;28;20282;-76
2021/03/17 08:19:18;;;;;;;10.83;5.57;;;7.30;99.90;;;;;;5039536;28;20257;-75
2021/03/17 08:21:49;;;;;;;13.80;5.40;;;7.30;99.90;;;;;;5039165;28;20207;-75
2021/03/17 08:24:41;;;;;;;10.13;5.27;;;7.40;99.90;;;;;;5039524;28;20212;-75
2021/03/17 08:27:20;;;;;;;8.60;4.70;;;7.40;99.90;;;;;;5039777;28;20213;-75
2021/03/17 08:29:49;;;;;;;8.83;4.40;;;7.30;99.90;;;;;;5040215;28;20216;-76
2021/03/17 08:32:18;;;;;;;8.00;4.50;;;7.20;99.90;;;;;;5040887;28;20295;-75
2021/03/17 08:34:55;;;;;;;11.43;4.80;;;7.10;99.90;;;;;;5038251;28;20231;-75
2021/03/17 08:37:49;;;;;;;7.63;4.53;;;7.10;99.90;;;;;;5037619;28;20226;-75
2021/03/17 08:40:46;;;;;;;11.10;5.23;;;7.10;99.90;;;;;;5038337;28;20200;-75
2021/03/17 08:43:42;;;;;;;14.17;6.30;;;7.00;99.90;;;;;;5038036;28;20208;-75
2021/03/17 08:46:10;;;;;;;13.20;6.50;;;7.00;99.90;;;;;;5037921;28;21500;-75
2021/03/17 08:49:02;;;;;;;18.83;7.53;;;7.00;99.90;;;;;;5038155;28;20265;-75
2021/03/17 08:52:05;;;;;;;12.03;7.53;;;7.00;99.90;;;;;;5038463;28;20234;-74
2021/03/17 08:55:10;;;;;;;10.60;7.40;;;7.00;99.90;;;;;;5038491;28;21445;-74
2021/03/17 08:58:09;;;;;;;12.17;7.77;;;7.00;99.90;;;;;;5038916;28;20230;-75
2021/03/17 09:00:58;;;;;;;13.33;8.30;;;7.10;99.90;;;;;;5038658;28;20625;-75
2021/03/17 09:03:47;;;;;;;11.67;8.37;;;7.10;99.90;;;;;;5037539;28;20197;-74
2021/03/17 09:06:22;;;;;;;12.03;8.87;;;7.10;99.90;;;;;;5037880;28;20291;-75
2021/03/17 09:08:57;;;;;;;9.87;7.90;;;7.30;99.90;;;;;;5037733;28;21527;-74
2021/03/17 09:11:51;;;;;;;11.57;7.30;;;7.40;99.90;;;;;;5038046;28;20298;-75
2021/03/17 09:14:24;;;;;;;7.67;6.67;;;7.40;99.90;;;;;;5038208;28;20227;-75
2021/03/17 09:17:14;;;;;;;7.83;6.07;;;7.50;99.90;;;;;;5038056;28;20262;-75
2021/03/17 09:20:07;;;;;;;14.17;6.17;;;7.50;99.90;;;;;;5038202;28;20264;-75
2021/03/17 09:22:38;;;;;;;9.17;6.27;;;7.40;99.90;;;;;;5037812;28;20192;-75
2021/03/17 09:25:24;;;;;;;10.53;6.70;;;7.40;99.90;;;;;;5037195;28;20651;-75
2021/03/17 09:28:06;;;;;;;10.27;6.00;;;7.30;99.90;;;;;;5038093;28;20208;-75
2021/03/17 09:30:39;;;;;;;7.93;6.17;;;7.30;99.90;;;;;;5036547;28;20193;-74
2021/03/17 09:33:08;;;;;;;11.50;6.30;;;7.20;99.90;;;;;;5037779;28;20258;-75
2021/03/17 09:35:36;;;;;;;10.40;6.00;;;7.20;99.90;;;;;;5038490;28;20557;-76
2021/03/17 09:38:07;;;;;;;9.70;5.73;;;7.30;99.90;;;;;;5037000;28;20654;-75
2021/03/17 09:40:36;;;;;;;9.23;6.17;;;7.30;99.90;;;;;;5037708;28;20212;-75
2021/03/17 09:43:03;;;;;;;9.97;5.83;;;7.20;99.90;;;;;;5038154;28;20235;-75
2021/03/17 09:45:30;;;;;;;9.43;6.03;;;7.10;99.90;;;;;;5038414;28;20222;-74
2021/03/17 09:47:57;;;;;;;7.43;5.47;;;7.20;99.90;;;;;;5037431;28;20663;-75
2021/03/17 09:50:25;;;;;;;9.10;5.87;;;7.30;99.90;;;;;;5037467;28;20664;-77
2021/03/17 09:52:52;;;;;;;6.33;5.73;;;7.30;99.90;;;;;;5037069;28;20286;-77
2021/03/17 09:55:35;;;;;;;8.10;5.63;;;7.20;99.90;;;;;;5037309;28;20224;-74
2021/03/17 09:58:06;;;;;;;5.93;5.30;;;7.30;99.90;;;;;;5036752;28;20720;-75
2021/03/17 10:00:33;;;;;;;6.73;5.80;;;7.30;99.90;;;;;;5037398;28;20200;-75
2021/03/17 10:03:01;;;;;;;5.47;5.00;;;7.40;99.90;;;;;;5036014;28;20941;-75
2021/03/17 10:05:28;;;;;;;6.23;5.20;;;7.30;99.90;;;;;;5037410;28;20230;-74
2021/03/17 10:07:54;;;;;;;5.50;4.70;;;7.50;99.90;;;;;;5037389;28;20211;-74
2021/03/17 10:10:21;;;;;;;4.50;4.20;;;7.40;99.90;;;;;;5037611;28;20207;-75
2021/03/17 10:12:49;;;;;;;4.87;4.40;;;7.40;99.90;;;;;;5037558;28;20204;-74
2021/03/17 10:15:19;;;;;;;4.60;3.70;;;7.50;99.90;;;;;;5038147;28;20292;-74
2021/03/17 10:17:46;;;;;;;3.00;2.70;;;7.40;99.90;;;;;;5036822;28;20205;-74
2021/03/17 10:20:15;;;;;;;2.80;2.60;;;7.30;99.90;;;;;;5036611;28;20218;-73
2021/03/17 10:22:42;;;;;;;2.47;2.20;;;7.30;99.90;;;;;;5037169;28;20208;-75
2021/03/17 10:25:11;;;;;;;4.17;2.90;;;7.30;99.90;;;;;;5035999;28;20212;-73
2021/03/17 10:27:39;;;;;;;2.93;2.60;;;7.40;99.90;;;;;;5037651;28;20208;-74
2021/03/17 10:30:09;;;;;;;3.27;2.80;;;7.30;99.90;;;;;;5038682;28;20745;-74
2021/03/17 10:32:37;;;;;;;3.50;3.20;;;7.40;99.90;;;;;;5037122;28;20204;-74
2021/03/17 10:35:07;;;;;;;8.87;3.40;;;7.40;99.90;;;;;;5035620;28;20220;-74
2021/03/17 10:37:34;;;;;;;6.60;3.40;;;7.40;99.90;;;;;;5036473;28;20212;-75
2021/03/17 10:40:08;;;;;;;4.47;3.13;;;7.50;99.90;;;;;;5036957;28;20270;-75
2021/03/17 10:42:41;;;;;;;5.70;3.23;;;7.80;99.90;;;;;;5038101;28;20685;-77
2021/03/17 10:45:11;;;;;;;4.97;3.53;;;8.00;99.90;;;;;;5037124;28;20202;-76
2021/03/17 10:47:39;;;;;;;4.27;2.87;;;8.20;99.90;;;;;;5034993;28;20210;-76
2021/03/17 10:50:07;;;;;;;4.50;3.20;;;8.20;99.90;;;;;;5037208;28;20200;-77
2021/03/17 10:52:38;;;;;;;3.90;3.50;;;8.00;99.90;;;;;;5037028;28;20219;-76
2021/03/17 10:55:17;;;;;;;5.90;4.30;;;7.90;99.90;;;;;;5036828;28;20228;-77
2021/03/17 10:57:44;;;;;;;7.63;5.30;;;7.80;99.90;;;;;;5037626;28;20620;-76
2021/03/17 11:00:21;;;;;;;5.50;4.77;;;7.60;99.90;;;;;;5038074;28;20207;-75
2021/03/17 11:02:47;;;;;;;6.47;5.20;;;7.50;99.90;;;;;;5035676;28;20651;-76
2021/03/17 11:05:26;;;;;;;6.63;5.97;;;7.30;99.90;;;;;;5036747;28;20212;-76
2021/03/17 11:08:07;;;;;;;6.17;5.57;;;7.10;99.90;;;;;;5038003;28;20223;-77
2021/03/17 11:10:53;;;;;;;6.50;5.90;;;7.10;99.90;;;;;;5041014;28;20210;-76
2021/03/17 11:13:34;;;;;;;6.53;5.93;;;7.00;99.90;;;;;;5040391;28;20674;-76
2021/03/17 11:16:35;;;;;;;7.57;6.13;;;6.90;99.90;;;;;;5041265;28;20223;-76
2021/03/17 11:19:03;;;;;;;5.83;4.47;;;6.90;99.90;;;;;;5040215;28;20573;-74
2021/03/17 11:21:32;;;;;;;5.13;3.53;;;6.80;99.90;;;;;;5041290;28;20214;-75
2021/03/17 11:24:00;;;;;;;6.37;4.70;;;6.70;99.90;;;;;;5040378;28;20206;-75
2021/03/17 11:26:30;;;;;;;16.57;5.50;;;6.50;99.90;;;;;;5042574;28;20247;-75
2021/03/17 11:28:59;;;;;;;7.73;4.93;;;6.50;99.90;;;;;;5040786;28;20207;-75
2021/03/17 11:31:32;;;;;;;9.03;5.27;;;6.40;99.90;;;;;;5040602;28;20195;-75
2021/03/17 11:33:59;;;;;;;7.20;4.27;;;6.50;99.90;;;;;;5040330;28;20222;-73
2021/03/17 11:36:27;;;;;;;6.37;3.30;;;6.60;99.90;;;;;;5039534;28;20692;-73
2021/03/17 11:38:55;;;;;;;5.33;3.50;;;6.50;99.90;;;;;;5040646;28;20551;-73
2021/03/17 11:41:23;;;;;;;5.97;3.23;;;6.60;99.90;;;;;;5040596;28;20291;-73
2021/03/17 11:43:50;;;;;;;5.83;3.00;;;6.60;99.90;;;;;;5040613;28;20269;-75
2021/03/17 11:46:18;;;;;;;8.87;2.97;;;6.70;99.90;;;;;;5040588;28;20265;-74
2021/03/17 11:48:46;;;;;;;5.27;2.43;;;6.60;99.90;;;;;;5039949;28;20192;-74
2021/03/17 11:51:13;;;;;;;4.80;2.40;;;6.60;99.90;;;;;;5039433;28;20290;-73
2021/03/17 11:53:39;;;;;;;7.27;2.90;;;6.60;99.90;;;;;;5039362;28;20208;-74
2021/03/17 11:56:07;;;;;;;3.80;2.53;;;6.70;99.90;;;;;;5039490;28;20232;-74
2021/03/17 11:58:34;;;;;;;7.17;2.53;;;6.70;99.90;;;;;;5039977;28;20191;-74
2021/03/17 12:01:02;;;;;;;5.63;2.23;;;6.80;99.90;;;;;;5040573;28;20204;-73
2021/03/17 12:03:28;;;;;;;5.40;2.27;;;6.80;99.90;;;;;;5039715;28;20207;-74
2021/03/17 12:05:56;;;;;;;5.97;2.67;;;6.80;99.90;;;;;;5039045;28;20214;-72
2021/03/17 12:08:22;;;;;;;4.00;2.40;;;6.90;99.90;;;;;;5039784;28;20212;-73
2021/03/17 12:10:51;;;;;;;4.63;2.50;;;6.90;99.90;;;;;;5039249;28;20240;-73
2021/03/17 12:13:18;;;;;;;10.27;2.87;;;6.80;99.90;;;;;;5039748;28;20278;-73
2021/03/17 12:15:44;;;;;;;7.20;2.57;;;7.00;99.90;;;;;;5038751;28;20232;-73
2021/03/17 12:18:11;;;;;;;6.83;3.03;;;7.10;99.90;;;;;;5038626;28;21464;-73
2021/03/17 12:20:37;;;;;;;6.60;2.97;;;7.20;99.90;;;;;;5038359;28;20603;-73
2021/03/17 12:23:05;;;;;;;6.53;2.97;;;7.30;99.90;;;;;;5038209;28;20287;-73
2021/03/17 12:25:32;;;;;;;4.60;2.90;;;7.60;99.90;;;;;;5041434;28;20207;-73
2021/03/17 12:27:58;;;;;;;5.47;2.50;;;7.60;99.90;;;;;;5040744;28;20203;-74
2021/03/17 12:30:25;;;;;;;6.53;2.90;;;7.70;99.90;;;;;;5039246;28;20729;-73
2021/03/17 12:32:53;;;;;;;7.07;2.77;;;7.90;99.90;;;;;;5038635;28;20563;-73
2021/03/17 12:35:22;;;;;;;14.00;3.50;;;8.00;99.90;;;;;;5037883;28;20310;-73
2021/03/17 12:37:49;;;;;;;8.90;3.53;;;8.20;99.90;;;;;;5038606;28;20220;-73
2021/03/17 12:40:20;;;;;;;4.53;2.83;;;8.40;99.90;;;;;;5037641;28;21257;-73
2021/03/17 12:42:47;;;;;;;10.00;3.70;;;8.40;99.90;;;;;;5038057;28;20200;-74
2021/03/17 12:45:15;;;;;;;5.00;3.13;;;8.50;99.90;;;;;;5037446;28;20196;-74
2021/03/17 12:47:42;;;;;;;10.03;3.70;;;8.50;99.90;;;;;;5037681;28;20723;-73
2021/03/17 12:50:11;;;;;;;7.03;2.90;;;8.30;99.90;;;;;;5038650;28;20204;-72
2021/03/17 12:52:38;;;;;;;8.33;2.57;;;8.10;99.90;;;;;;5040772;28;20200;-72
2021/03/17 12:55:06;;;;;;;5.07;1.87;;;8.00;99.90;;;;;;5037940;28;20234;-74
2021/03/17 12:57:34;;;;;;;4.93;2.40;;;8.00;99.90;;;;;;5037949;28;20203;-73
2021/03/17 13:00:01;;;;;;;11.30;3.17;;;7.90;99.90;;;;;;5050620;28;20206;-73